Time;durP1;ratioP1;P1;durP2;ratioP2;P2;SDS_P1;SDS_P2;PMS_P1;PMS_P2;Temp;Humidity;BMP_temperature;BMP_pressure;BME280_temperature;BME280_humidity;BME280_pressure;Samples;Min_cycle;Max_cycle;Signal;HPM_P1;HPM_P2
2023/05/28 00:02:23;;;;;;;14.47;13.30;;;13.40;99.90;;;;;;5032801;28;20648;-75
2023/05/28 00:04:49;;;;;;;15.23;13.60;;;13.40;99.90;;;;;;5032672;28;20451;-73
2023/05/28 00:07:16;;;;;;;16.23;14.70;;;13.30;99.90;;;;;;5033132;28;20448;-72
2023/05/28 00:09:44;;;;;;;16.87;15.37;;;13.30;99.90;;;;;;5033197;28;20472;-73
2023/05/28 00:12:12;;;;;;;17.60;15.87;;;13.20;99.90;;;;;;5032607;28;20527;-73
2023/05/28 00:14:38;;;;;;;16.03;14.77;;;13.20;99.90;;;;;;5032540;28;20456;-73
2023/05/28 00:17:05;;;;;;;16.37;14.97;;;13.10;99.90;;;;;;5032338;28;20854;-73
2023/05/28 00:19:32;;;;;;;16.43;15.00;;;13.10;99.90;;;;;;5032570;28;20527;-73
2023/05/28 00:21:59;;;;;;;15.50;14.30;;;13.10;99.90;;;;;;5032449;28;20461;-73
2023/05/28 00:24:26;;;;;;;16.07;14.60;;;13.00;99.90;;;;;;5032482;28;20449;-74
2023/05/28 00:26:54;;;;;;;15.87;14.67;;;12.90;99.90;;;;;;5032169;28;20781;-74
2023/05/28 00:29:21;;;;;;;17.03;15.47;;;12.90;99.90;;;;;;5032276;28;20476;-73
2023/05/28 00:31:47;;;;;;;17.23;15.73;;;12.80;99.90;;;;;;5032244;28;20461;-73
2023/05/28 00:34:14;;;;;;;15.50;14.10;;;12.80;99.90;;;;;;5032472;28;20453;-74
2023/05/28 00:36:41;;;;;;;16.80;15.30;;;12.80;99.90;;;;;;5032311;28;20449;-73
2023/05/28 00:39:07;;;;;;;16.17;14.97;;;12.80;99.90;;;;;;5032186;28;20495;-74
2023/05/28 00:41:36;;;;;;;16.50;15.30;;;12.80;99.90;;;;;;5032000;28;20812;-73
2023/05/28 00:44:05;;;;;;;16.40;14.87;;;12.70;99.90;;;;;;5031835;28;20970;-73
2023/05/28 00:46:32;;;;;;;17.93;16.30;;;12.60;99.90;;;;;;5031923;28;20902;-74
2023/05/28 00:48:59;;;;;;;17.07;15.47;;;12.60;99.90;;;;;;5032141;28;20585;-74
2023/05/28 00:51:26;;;;;;;18.27;16.47;;;12.60;99.90;;;;;;5030820;28;21005;-73
2023/05/28 00:53:54;;;;;;;17.37;15.90;;;12.50;99.90;;;;;;5032076;28;20463;-74
2023/05/28 00:56:22;;;;;;;17.87;16.27;;;12.50;99.90;;;;;;5031655;28;20449;-73
2023/05/28 00:58:50;;;;;;;18.10;16.60;;;12.40;99.90;;;;;;5031689;28;20453;-73
2023/05/28 01:01:18;;;;;;;16.93;15.40;;;12.50;99.90;;;;;;5031881;28;20951;-74
2023/05/28 01:03:46;;;;;;;19.63;16.13;;;12.50;99.90;;;;;;5031912;28;20442;-73
2023/05/28 01:06:14;;;;;;;26.27;16.33;;;12.50;99.90;;;;;;5031759;28;20472;-74
2023/05/28 01:08:41;;;;;;;17.33;15.87;;;12.50;99.90;;;;;;5031595;28;20445;-73
2023/05/28 01:11:12;;;;;;;16.57;15.27;;;12.50;99.90;;;;;;5031498;28;20835;-73
2023/05/28 01:13:40;;;;;;;17.57;15.93;;;12.50;99.90;;;;;;5031291;28;20449;-73
2023/05/28 01:16:08;;;;;;;17.03;15.80;;;12.50;99.90;;;;;;5031222;28;20465;-73
2023/05/28 01:18:39;;;;;;;16.63;15.40;;;12.40;99.90;;;;;;5031200;28;20663;-74
2023/05/28 01:21:06;;;;;;;18.90;17.20;;;12.40;99.90;;;;;;5031172;28;20485;-73
2023/05/28 01:23:39;;;;;;;17.23;16.03;;;12.30;99.90;;;;;;5031307;28;20452;-73
2023/05/28 01:26:07;;;;;;;18.63;16.97;;;12.30;99.90;;;;;;5031228;28;20477;-73
2023/05/28 01:28:34;;;;;;;16.93;15.53;;;12.20;99.90;;;;;;5031021;28;20452;-72
2023/05/28 01:31:00;;;;;;;19.00;17.23;;;12.20;99.90;;;;;;5031323;28;20471;-73
2023/05/28 01:33:27;;;;;;;17.27;16.07;;;12.20;99.90;;;;;;5031214;28;20463;-74
2023/05/28 01:35:58;;;;;;;18.93;17.50;;;12.20;99.90;;;;;;5031103;28;20455;-73
2023/05/28 01:38:26;;;;;;;18.33;17.03;;;12.10;99.90;;;;;;5030955;28;20449;-74
2023/05/28 01:40:55;;;;;;;19.00;17.60;;;12.00;99.90;;;;;;5030885;28;20796;-74
2023/05/28 01:43:22;;;;;;;16.90;15.70;;;12.00;99.90;;;;;;5030888;28;20460;-75
2023/05/28 01:45:50;;;;;;;17.87;16.40;;;12.00;99.90;;;;;;5030821;28;20457;-74
2023/05/28 01:48:17;;;;;;;17.40;16.10;;;11.90;99.90;;;;;;5031081;28;20548;-75
2023/05/28 01:50:43;;;;;;;18.30;16.80;;;11.90;99.90;;;;;;5030998;28;20449;-74
2023/05/28 01:53:10;;;;;;;17.73;16.43;;;12.00;99.90;;;;;;5030936;28;20448;-74
2023/05/28 01:55:37;;;;;;;18.60;17.20;;;11.90;99.90;;;;;;5030619;28;20445;-73
2023/05/28 01:58:05;;;;;;;16.57;15.37;;;11.90;99.90;;;;;;5030492;28;21089;-73
2023/05/28 02:00:33;;;;;;;17.77;16.17;;;12.00;99.90;;;;;;5030547;28;21019;-73
2023/05/28 02:03:00;;;;;;;17.57;16.10;;;12.00;99.90;;;;;;5030655;28;20449;-72
2023/05/28 02:05:26;;;;;;;17.23;15.87;;;12.10;99.90;;;;;;5037069;28;20456;-74
2023/05/28 02:07:53;;;;;;;15.73;14.63;;;12.00;99.90;;;;;;5033490;28;20445;-72
2023/05/28 02:10:21;;;;;;;15.70;14.40;;;12.00;99.90;;;;;;5031035;28;20449;-73
2023/05/28 02:12:47;;;;;;;16.03;14.70;;;12.00;99.90;;;;;;5030342;28;20460;-73
2023/05/28 02:15:16;;;;;;;18.20;16.63;;;12.00;99.90;;;;;;5030554;28;20452;-74
2023/05/28 02:17:43;;;;;;;16.60;14.90;;;11.90;99.90;;;;;;5030245;28;20477;-73
2023/05/28 02:20:11;;;;;;;19.87;17.97;;;11.80;99.90;;;;;;5030148;28;20488;-73
2023/05/28 02:22:38;;;;;;;19.33;17.63;;;11.80;99.90;;;;;;5030103;28;20547;-73
2023/05/28 02:25:06;;;;;;;20.97;19.27;;;11.80;99.90;;;;;;5029970;28;20455;-73
2023/05/28 02:27:32;;;;;;;18.97;17.03;;;11.80;99.90;;;;;;5030113;28;20460;-73
2023/05/28 02:29:59;;;;;;;18.77;17.13;;;11.70;99.90;;;;;;5030252;28;20456;-73
2023/05/28 02:32:27;;;;;;;18.23;16.77;;;11.70;99.90;;;;;;5030253;28;20445;-73
2023/05/28 02:34:54;;;;;;;20.47;18.77;;;11.70;99.90;;;;;;5029900;28;20457;-73
2023/05/28 02:37:23;;;;;;;18.40;16.90;;;11.70;99.90;;;;;;5029806;28;20479;-73
2023/05/28 02:39:50;;;;;;;18.73;17.03;;;11.60;99.90;;;;;;5030085;28;20578;-73
2023/05/28 02:42:17;;;;;;;19.40;17.60;;;11.50;99.90;;;;;;5029834;28;20460;-74
2023/05/28 02:44:44;;;;;;;18.77;17.40;;;11.60;99.90;;;;;;5029996;28;20464;-74
2023/05/28 02:47:10;;;;;;;19.53;18.00;;;11.60;99.90;;;;;;5029924;28;20453;-74
2023/05/28 02:49:38;;;;;;;18.60;17.03;;;11.50;99.90;;;;;;5029637;28;20729;-74
2023/05/28 02:52:05;;;;;;;20.43;17.97;;;11.50;99.90;;;;;;5029861;28;20452;-75
2023/05/28 02:54:32;;;;;;;16.73;15.33;;;11.40;99.90;;;;;;5030084;28;20453;-74
2023/05/28 02:56:59;;;;;;;19.20;17.70;;;11.40;99.90;;;;;;5029848;28;20951;-74
2023/05/28 02:59:25;;;;;;;17.90;16.80;;;11.40;99.90;;;;;;5029571;28;20468;-73
2023/05/28 03:01:52;;;;;;;17.90;16.40;;;11.30;99.90;;;;;;5029969;28;20452;-73
2023/05/28 03:04:19;;;;;;;16.97;15.43;;;11.30;99.90;;;;;;5029533;28;20459;-73
2023/05/28 03:06:47;;;;;;;18.17;16.57;;;11.30;99.90;;;;;;5029986;28;20923;-74
2023/05/28 03:09:14;;;;;;;17.20;16.10;;;11.30;99.90;;;;;;5029999;28;20453;-73
2023/05/28 03:11:41;;;;;;;19.33;17.73;;;11.40;99.90;;;;;;5029416;28;20867;-73
2023/05/28 03:14:07;;;;;;;18.23;16.67;;;11.30;99.90;;;;;;5030325;28;20449;-73
2023/05/28 03:16:36;;;;;;;21.00;19.10;;;11.10;99.90;;;;;;5033493;28;20472;-73
2023/05/28 03:19:02;;;;;;;19.30;17.90;;;11.20;99.90;;;;;;5033642;28;20488;-74
2023/05/28 03:21:30;;;;;;;17.80;16.57;;;11.20;99.90;;;;;;5033799;28;20489;-73
2023/05/28 03:23:58;;;;;;;19.80;17.70;;;11.10;99.90;;;;;;5033695;28;20449;-73
2023/05/28 03:26:24;;;;;;;20.00;18.37;;;11.00;99.90;;;;;;5033038;28;20451;-73
2023/05/28 03:28:51;;;;;;;20.40;18.60;;;11.00;99.90;;;;;;5033354;28;20449;-74
2023/05/28 03:31:20;;;;;;;18.67;17.07;;;11.00;99.90;;;;;;5033617;28;20460;-73
2023/05/28 03:33:47;;;;;;;17.93;16.33;;;10.90;99.90;;;;;;5033546;28;20456;-73
2023/05/28 03:36:13;;;;;;;17.60;16.40;;;11.00;99.90;;;;;;5033537;28;20790;-73
2023/05/28 03:38:40;;;;;;;20.13;18.60;;;11.00;99.90;;;;;;5033224;28;20455;-72
2023/05/28 03:41:08;;;;;;;18.40;17.00;;;10.90;99.90;;;;;;5033126;28;20476;-73
2023/05/28 03:43:35;;;;;;;17.83;16.50;;;10.90;99.90;;;;;;5033198;28;20822;-73
2023/05/28 03:46:01;;;;;;;17.87;16.67;;;10.90;99.90;;;;;;5033452;28;20969;-73
2023/05/28 03:48:28;;;;;;;18.80;17.40;;;11.00;99.90;;;;;;5033421;28;20453;-73
2023/05/28 03:50:55;;;;;;;18.20;16.90;;;11.10;99.90;;;;;;5032922;28;20817;-73
2023/05/28 03:53:22;;;;;;;17.20;16.00;;;11.10;99.90;;;;;;5033072;28;20457;-73
2023/05/28 03:55:51;;;;;;;18.80;17.10;;;11.10;99.90;;;;;;5032924;28;20445;-73
2023/05/28 03:58:20;;;;;;;18.93;17.53;;;11.20;99.90;;;;;;5032885;28;20464;-73
2023/05/28 04:00:47;;;;;;;19.87;18.23;;;11.10;99.90;;;;;;5032965;28;20488;-73
2023/05/28 04:03:14;;;;;;;19.50;17.90;;;11.20;99.90;;;;;;5033170;28;20452;-75
2023/05/28 04:05:41;;;;;;;20.90;19.00;;;11.20;99.90;;;;;;5032866;28;20460;-75
2023/05/28 04:08:08;;;;;;;17.53;16.33;;;11.30;99.90;;;;;;5032803;28;20819;-75
2023/05/28 04:10:34;;;;;;;17.20;15.70;;;11.50;99.90;;;;;;5032728;28;20444;-73
2023/05/28 04:13:01;;;;;;;17.20;16.20;;;11.30;99.90;;;;;;5032801;28;20472;-73
2023/05/28 04:15:29;;;;;;;17.97;16.10;;;11.40;99.90;;;;;;5031465;28;20468;-73
2023/05/28 04:17:56;;;;;;;17.53;16.20;;;11.60;99.90;;;;;;5031231;28;20469;-73
2023/05/28 04:20:23;;;;;;;18.60;16.40;;;11.60;99.90;;;;;;5031191;28;20481;-74
2023/05/28 04:22:50;;;;;;;18.50;17.00;;;11.60;99.90;;;;;;5031117;28;20484;-73
2023/05/28 04:25:20;;;;;;;17.53;16.17;;;11.70;99.90;;;;;;5030403;28;20474;-73
2023/05/28 04:27:47;;;;;;;16.90;15.60;;;11.80;99.90;;;;;;5030767;28;20441;-75
2023/05/28 04:30:14;;;;;;;17.63;15.83;;;12.20;99.90;;;;;;5031371;28;20449;-76
2023/05/28 04:32:42;;;;;;;16.07;14.93;;;12.60;99.90;;;;;;5030972;28;20444;-76
2023/05/28 04:35:09;;;;;;;16.40;15.10;;;13.20;99.90;;;;;;5030971;28;20460;-76
2023/05/28 04:37:36;;;;;;;16.17;14.87;;;13.60;99.90;;;;;;5030709;28;20457;-74
2023/05/28 04:40:03;;;;;;;15.67;14.57;;;14.10;99.90;;;;;;5030652;28;20453;-74
2023/05/28 04:42:30;;;;;;;14.50;13.00;;;14.70;99.90;;;;;;5030953;28;20452;-74
2023/05/28 04:44:58;;;;;;;15.47;14.27;;;14.90;99.90;;;;;;5030855;28;20452;-75
2023/05/28 04:47:24;;;;;;;16.37;14.70;;;15.20;99.90;;;;;;5031541;28;21022;-74
2023/05/28 04:49:52;;;;;;;15.50;14.40;;;15.50;99.90;;;;;;5037598;28;20448;-76
2023/05/28 04:52:19;;;;;;;15.43;14.17;;;15.70;99.90;;;;;;5032981;28;20939;-78
2023/05/28 04:54:46;;;;;;;16.03;14.67;;;15.80;99.90;;;;;;5039067;28;20449;-77
2023/05/28 04:57:13;;;;;;;14.70;13.23;;;16.00;99.90;;;;;;5038511;28;20437;-77
2023/05/28 04:59:39;;;;;;;15.67;14.17;;;16.10;99.90;;;;;;5031907;28;20911;-77
2023/05/28 05:02:06;;;;;;;14.07;13.07;;;16.30;99.90;;;;;;5030983;28;20495;-77
2023/05/28 05:04:33;;;;;;;15.70;14.50;;;16.60;99.90;;;;;;5031016;28;20449;-78
2023/05/28 05:07:01;;;;;;;15.30;14.13;;;17.00;99.90;;;;;;5031165;28;20468;-77
2023/05/28 05:09:30;;;;;;;14.03;13.13;;;17.00;99.90;;;;;;5031139;28;20445;-76
2023/05/28 05:11:57;;;;;;;14.57;13.50;;;17.20;99.90;;;;;;5030682;28;20460;-77
2023/05/28 05:14:23;;;;;;;16.37;14.67;;;17.50;99.90;;;;;;5030014;28;20572;-73
2023/05/28 05:16:50;;;;;;;14.13;13.07;;;17.70;99.90;;;;;;5029172;28;21002;-79
2023/05/28 05:22:07;;;;;;;13.60;12.70;;;18.40;99.60;;;;;;5028969;28;20857;-76
2023/05/28 05:24:34;;;;;;;15.40;14.07;;;18.80;98.40;;;;;;5029482;28;20461;-78
2023/05/28 05:27:01;;;;;;;15.50;13.87;;;18.80;98.20;;;;;;5027763;28;20464;-78
2023/05/28 05:29:28;;;;;;;15.10;13.80;;;19.10;97.60;;;;;;5029716;28;20452;-77
2023/05/28 05:31:55;;;;;;;16.93;15.30;;;19.40;97.20;;;;;;5029511;28;20448;-76
2023/05/28 05:34:22;;;;;;;14.53;13.30;;;19.90;96.80;;;;;;5029703;28;20453;-76
2023/05/28 05:36:48;;;;;;;16.47;14.53;;;20.10;95.70;;;;;;5029070;28;20453;-77
2023/05/28 05:39:16;;;;;;;15.83;14.43;;;20.20;94.70;;;;;;5030004;28;20461;-77
2023/05/28 05:41:45;;;;;;;17.70;16.10;;;20.50;94.10;;;;;;5029700;28;20485;-77
2023/05/28 05:44:11;;;;;;;16.27;15.07;;;20.80;93.50;;;;;;5029612;28;20452;-77
2023/05/28 05:46:38;;;;;;;16.60;15.40;;;20.70;93.30;;;;;;5029387;28;20464;-78
2023/05/28 05:49:05;;;;;;;16.73;15.37;;;21.00;93.00;;;;;;5029031;28;20453;-78
2023/05/28 05:51:32;;;;;;;16.10;14.90;;;21.40;91.80;;;;;;5029229;28;20441;-78
2023/05/28 05:53:59;;;;;;;15.03;13.83;;;21.40;91.50;;;;;;5029288;28;20510;-78
2023/05/28 05:56:27;;;;;;;16.17;14.70;;;21.10;91.90;;;;;;5028959;28;20539;-78
2023/05/28 05:58:53;;;;;;;15.33;14.13;;;21.30;91.60;;;;;;5029019;28;20524;-77
2023/05/28 06:01:22;;;;;;;16.47;15.17;;;22.00;90.40;;;;;;5028891;28;20847;-78
2023/05/28 06:03:48;;;;;;;16.63;15.10;;;22.00;89.80;;;;;;5028989;28;20560;-77
2023/05/28 06:06:15;;;;;;;15.70;14.60;;;22.00;90.20;;;;;;5029145;28;20456;-77
2023/05/28 06:08:42;;;;;;;15.23;14.13;;;22.50;86.20;;;;;;5029019;28;20930;-77
2023/05/28 06:11:09;;;;;;;16.17;14.90;;;22.30;85.30;;;;;;5028573;28;20818;-77
2023/05/28 06:13:37;;;;;;;15.83;14.30;;;22.30;84.80;;;;;;5028536;28;20892;-77
2023/05/28 06:16:06;;;;;;;13.73;12.67;;;22.60;83.10;;;;;;5028651;28;20483;-77
2023/05/28 06:18:33;;;;;;;16.57;15.07;;;22.90;81.90;;;;;;5028799;28;20485;-78
2023/05/28 06:21:00;;;;;;;14.10;13.20;;;23.20;81.30;;;;;;5029962;28;20488;-78
2023/05/28 06:23:26;;;;;;;14.90;13.63;;;23.00;81.10;;;;;;5029334;28;20472;-77
2023/05/28 06:25:53;;;;;;;16.17;14.03;;;23.30;80.70;;;;;;5028836;28;20823;-78
2023/05/28 06:28:20;;;;;;;15.23;14.03;;;23.40;78.70;;;;;;5028419;28;20961;-78
2023/05/28 06:30:48;;;;;;;14.13;13.20;;;23.90;78.80;;;;;;5028875;28;20449;-78
2023/05/28 06:33:15;;;;;;;15.27;14.27;;;24.10;77.40;;;;;;5028927;28;20453;-78
2023/05/28 06:35:42;;;;;;;13.90;13.00;;;24.40;76.10;;;;;;5028703;28;20953;-78
2023/05/28 06:38:09;;;;;;;15.23;13.87;;;24.60;72.50;;;;;;5028210;28;20476;-78
2023/05/28 06:40:35;;;;;;;13.90;13.07;;;24.40;71.90;;;;;;5028313;28;20440;-80
2023/05/28 06:43:02;;;;;;;15.13;14.20;;;24.80;70.50;;;;;;5028084;28;20793;-79
2023/05/28 06:45:32;;;;;;;13.57;12.47;;;24.80;69.70;;;;;;5028351;28;20449;-78
2023/05/28 06:48:00;;;;;;;14.47;13.37;;;24.70;69.80;;;;;;5028264;28;20449;-80
2023/05/28 06:50:27;;;;;;;15.97;14.80;;;25.00;68.40;;;;;;5027772;28;20457;-79
2023/05/28 06:52:54;;;;;;;16.33;15.30;;;25.00;67.30;;;;;;5028165;28;20481;-79
2023/05/28 06:55:20;;;;;;;15.30;14.10;;;25.20;66.60;;;;;;5028192;28;21021;-78
2023/05/28 06:57:47;;;;;;;15.37;14.37;;;25.90;65.40;;;;;;5028193;28;20467;-77
2023/05/28 07:00:16;;;;;;;16.40;15.00;;;25.90;64.00;;;;;;5028275;28;20930;-77
2023/05/28 07:02:44;;;;;;;15.47;14.40;;;26.70;62.30;;;;;;5028200;28;20840;-77
2023/05/28 07:05:13;;;;;;;15.37;14.47;;;26.70;62.20;;;;;;5028048;28;20453;-78
2023/05/28 07:07:40;;;;;;;14.67;13.57;;;26.70;61.10;;;;;;5027737;28;20514;-77
2023/05/28 07:10:08;;;;;;;15.43;14.20;;;26.50;60.60;;;;;;5027778;28;20449;-76
2023/05/28 07:12:35;;;;;;;14.33;13.33;;;26.80;60.10;;;;;;5027559;28;20931;-75
2023/05/28 07:15:02;;;;;;;15.53;14.30;;;26.80;60.10;;;;;;5027624;28;20453;-74
2023/05/28 07:17:28;;;;;;;16.57;15.37;;;26.80;59.20;;;;;;5027793;28;20477;-75
2023/05/28 07:19:55;;;;;;;14.30;13.30;;;26.80;58.50;;;;;;5028166;28;20868;-75
2023/05/28 07:22:24;;;;;;;14.03;13.13;;;27.10;58.70;;;;;;5027634;28;20511;-75
2023/05/28 07:24:51;;;;;;;16.23;14.40;;;27.50;57.70;;;;;;5027693;28;20460;-76
2023/05/28 07:27:17;;;;;;;17.10;16.10;;;28.40;56.20;;;;;;5027735;28;20448;-75
2023/05/28 07:29:44;;;;;;;14.67;13.87;;;28.10;56.10;;;;;;5027853;28;20543;-76
2023/05/28 07:32:11;;;;;;;14.87;14.00;;;28.50;55.80;;;;;;5027523;28;20448;-75
2023/05/28 07:34:38;;;;;;;16.30;15.10;;;28.60;55.40;;;;;;5027735;28;20453;-75
2023/05/28 07:37:06;;;;;;;15.37;14.47;;;28.30;55.00;;;;;;5027320;28;20464;-76
2023/05/28 07:39:34;;;;;;;16.67;15.67;;;28.40;55.00;;;;;;5027387;28;20865;-76
2023/05/28 07:42:00;;;;;;;17.57;16.47;;;28.70;54.20;;;;;;5027522;28;20493;-76
2023/05/28 07:44:27;;;;;;;15.43;14.53;;;29.00;53.70;;;;;;5027819;28;20445;-75
2023/05/28 07:46:54;;;;;;;15.17;13.87;;;29.10;53.60;;;;;;5028047;28;20453;-75
2023/05/28 07:49:21;;;;;;;16.57;15.60;;;29.60;52.90;;;;;;5027690;28;20841;-76
2023/05/28 07:51:48;;;;;;;16.87;16.00;;;29.40;52.00;;;;;;5027511;28;20477;-75
2023/05/28 07:54:15;;;;;;;16.43;15.50;;;28.80;52.90;;;;;;5027900;28;20544;-76
2023/05/28 07:56:43;;;;;;;14.97;14.10;;;28.70;54.30;;;;;;5027769;28;20471;-75
2023/05/28 07:59:11;;;;;;;16.27;14.93;;;28.90;53.40;;;;;;5027434;28;20453;-76
2023/05/28 08:01:37;;;;;;;15.50;14.40;;;28.80;54.00;;;;;;5030544;28;20552;-75
2023/05/28 08:04:04;;;;;;;16.97;15.77;;;29.40;52.60;;;;;;5031160;28;20455;-75
2023/05/28 08:06:31;;;;;;;14.70;13.90;;;29.80;52.30;;;;;;5031456;28;20460;-75
2023/05/28 08:08:58;;;;;;;15.27;14.27;;;30.10;51.50;;;;;;5031325;28;20977;-75
2023/05/28 08:11:25;;;;;;;15.60;14.63;;;30.40;50.90;;;;;;5031005;28;20444;-75
2023/05/28 08:13:53;;;;;;;17.60;16.50;;;30.30;51.70;;;;;;5030973;28;20794;-74
2023/05/28 08:16:20;;;;;;;16.10;15.10;;;30.40;50.00;;;;;;5030888;28;20468;-74
2023/05/28 08:18:47;;;;;;;18.40;16.93;;;31.00;49.20;;;;;;5031042;28;20484;-74
2023/05/28 08:21:13;;;;;;;15.83;14.93;;;31.10;49.50;;;;;;5031271;28;20457;-75
2023/05/28 08:23:40;;;;;;;17.27;16.00;;;31.40;48.40;;;;;;5030757;28;20659;-75
2023/05/28 08:26:07;;;;;;;17.60;16.53;;;31.30;49.00;;;;;;5030577;28;20742;-75
2023/05/28 08:28:33;;;;;;;15.70;14.80;;;31.40;48.20;;;;;;5030782;28;20800;-75
2023/05/28 08:31:01;;;;;;;16.73;15.73;;;31.50;48.10;;;;;;5031134;28;20460;-75
2023/05/28 08:33:28;;;;;;;15.80;14.60;;;32.20;48.40;;;;;;5030922;28;20778;-75
2023/05/28 08:35:55;;;;;;;15.50;14.60;;;32.50;47.40;;;;;;5030725;28;20552;-75
2023/05/28 08:38:21;;;;;;;17.63;16.63;;;33.10;46.50;;;;;;5030610;28;21103;-75
2023/05/28 08:40:54;;;;;;;17.37;16.27;;;33.00;46.00;;;;;;5030258;28;20453;-75
2023/05/28 08:43:20;;;;;;;17.83;16.80;;;33.20;45.80;;;;;;5030341;28;20634;-75
2023/05/28 08:45:47;;;;;;;17.27;16.30;;;33.40;44.80;;;;;;5030323;28;20453;-75
2023/05/28 08:48:16;;;;;;;16.63;15.70;;;32.60;45.00;;;;;;5030655;28;20723;-75
2023/05/28 08:50:48;;;;;;;17.50;16.20;;;32.90;44.90;;;;;;5030411;28;20775;-75
2023/05/28 08:53:17;;;;;;;16.03;15.00;;;32.30;45.40;;;;;;5030716;28;20496;-75
2023/05/28 08:55:45;;;;;;;17.17;15.87;;;31.80;46.20;;;;;;5030764;28;20519;-75
2023/05/28 08:58:12;;;;;;;16.53;15.40;;;32.60;46.00;;;;;;5030223;28;20452;-75
2023/05/28 09:00:39;;;;;;;15.80;14.90;;;31.90;46.50;;;;;;5030232;28;20495;-75
2023/05/28 09:03:07;;;;;;;18.10;16.80;;;32.10;46.90;;;;;;5030032;28;20492;-75
2023/05/28 09:05:37;;;;;;;16.30;15.20;;;32.70;45.70;;;;;;5029815;28;20449;-75
2023/05/28 09:08:06;;;;;;;15.80;14.70;;;33.30;45.40;;;;;;5029992;28;20484;-75
2023/05/28 09:10:33;;;;;;;15.87;14.90;;;33.30;44.80;;;;;;5029844;28;20883;-75
2023/05/28 09:13:01;;;;;;;16.23;15.33;;;33.40;44.80;;;;;;5029394;28;20446;-75
2023/05/28 09:15:29;;;;;;;15.90;15.00;;;32.50;44.50;;;;;;5029920;28;20606;-76
2023/05/28 09:17:58;;;;;;;16.60;15.50;;;32.30;45.70;;;;;;5029874;28;20568;-75
2023/05/28 09:20:25;;;;;;;15.47;14.50;;;32.30;45.60;;;;;;5029866;28;20449;-75
2023/05/28 09:23:00;;;;;;;17.47;16.03;;;31.90;46.10;;;;;;5029602;28;20565;-76
2023/05/28 09:25:28;;;;;;;17.83;16.83;;;32.30;45.60;;;;;;5030013;28;20497;-75
2023/05/28 09:27:55;;;;;;;17.63;16.33;;;33.00;44.00;;;;;;5029768;28;20449;-75
2023/05/28 09:30:23;;;;;;;17.10;16.10;;;32.80;44.20;;;;;;5029488;28;20460;-75
2023/05/28 09:32:57;;;;;;;16.17;15.07;;;31.90;44.40;;;;;;5029792;28;20477;-75
2023/05/28 09:35:26;;;;;;;18.00;16.40;;;32.00;45.10;;;;;;5029387;28;20597;-75
2023/05/28 09:38:03;;;;;;;17.27;15.97;;;32.00;45.00;;;;;;5029788;28;20799;-75
2023/05/28 09:40:30;;;;;;;14.70;13.80;;;31.00;46.10;;;;;;5029562;28;20452;-75
2023/05/28 09:42:57;;;;;;;15.07;14.00;;;30.80;46.30;;;;;;5029191;28;20518;-75
2023/05/28 09:45:25;;;;;;;16.57;15.30;;;30.80;47.50;;;;;;5029256;28;20463;-75
2023/05/28 09:47:52;;;;;;;17.43;16.33;;;31.00;45.50;;;;;;5029461;28;20492;-75
2023/05/28 09:50:18;;;;;;;16.27;15.27;;;30.90;46.00;;;;;;5029492;28;20453;-75
2023/05/28 09:52:46;;;;;;;15.47;14.47;;;30.40;46.00;;;;;;5029637;28;20452;-75
2023/05/28 09:55:17;;;;;;;16.77;15.80;;;30.20;46.00;;;;;;5029384;28;20472;-75
2023/05/28 09:57:47;;;;;;;15.37;14.43;;;30.00;46.30;;;;;;5029416;28;20452;-75
2023/05/28 10:00:22;;;;;;;16.53;15.43;;;29.60;46.40;;;;;;5029207;28;20453;-75
2023/05/28 10:02:59;;;;;;;16.47;15.33;;;30.20;45.70;;;;;;5028852;28;20519;-75
2023/05/28 10:05:29;;;;;;;15.37;14.53;;;30.60;44.80;;;;;;5029172;28;20449;-75
2023/05/28 10:07:57;;;;;;;16.47;15.07;;;30.60;43.30;;;;;;5028957;28;20456;-74
2023/05/28 10:10:27;;;;;;;14.70;13.70;;;30.40;44.20;;;;;;5029196;28;20484;-75
2023/05/28 10:12:55;;;;;;;14.23;13.33;;;29.80;44.40;;;;;;5028679;28;20475;-74
2023/05/28 10:15:22;;;;;;;14.93;13.83;;;29.60;46.10;;;;;;5028664;28;20551;-75
2023/05/28 10:17:50;;;;;;;17.07;15.97;;;30.20;44.90;;;;;;5028615;28;20487;-74
2023/05/28 10:20:18;;;;;;;16.43;15.43;;;30.50;44.50;;;;;;5028828;28;20514;-74
2023/05/28 10:22:45;;;;;;;16.37;15.47;;;30.90;43.40;;;;;;5029072;28;20492;-75
2023/05/28 10:25:12;;;;;;;14.90;14.07;;;31.40;42.90;;;;;;5028686;28;20476;-74
2023/05/28 10:27:45;;;;;;;16.73;15.63;;;31.20;42.80;;;;;;5028732;28;20457;-74
2023/05/28 10:30:13;;;;;;;15.80;15.00;;;31.20;43.50;;;;;;5028799;28;20449;-75
2023/05/28 10:32:41;;;;;;;15.77;14.73;;;30.70;42.90;;;;;;5028388;28;20445;-75
2023/05/28 10:35:11;;;;;;;14.03;13.33;;;30.60;43.80;;;;;;5028378;28;20449;-75
2023/05/28 10:37:37;;;;;;;17.50;16.57;;;31.00;43.70;;;;;;5028430;28;20514;-74
2023/05/28 10:40:09;;;;;;;15.73;14.93;;;31.30;42.30;;;;;;5027953;28;20452;-75
2023/05/28 10:42:41;;;;;;;16.17;15.17;;;31.70;41.70;;;;;;5028107;28;20515;-74
2023/05/28 10:45:09;;;;;;;15.87;14.87;;;32.10;41.20;;;;;;5028481;28;20861;-75
2023/05/28 10:47:38;;;;;;;16.63;15.63;;;31.40;42.90;;;;;;5028116;28;20457;-75
2023/05/28 10:50:12;;;;;;;16.37;15.40;;;31.00;43.50;;;;;;5028245;28;20453;-75
2023/05/28 10:52:39;;;;;;;15.40;14.60;;;31.70;42.10;;;;;;5028219;28;20449;-75
2023/05/28 10:55:08;;;;;;;15.73;14.67;;;32.20;41.50;;;;;;5028050;28;20556;-75
2023/05/28 10:57:44;;;;;;;16.20;15.00;;;33.10;41.10;;;;;;5028487;28;20961;-74
2023/05/28 11:00:13;;;;;;;15.67;14.77;;;33.50;40.50;;;;;;5028393;28;20452;-75
2023/05/28 11:02:40;;;;;;;16.80;15.80;;;32.60;41.50;;;;;;5028004;28;20492;-75
2023/05/28 11:05:08;;;;;;;17.27;16.10;;;32.50;42.40;;;;;;5028111;28;20917;-75
2023/05/28 11:07:36;;;;;;;17.97;16.80;;;33.60;42.20;;;;;;5028171;28;20449;-74
2023/05/28 11:10:05;;;;;;;16.20;15.30;;;33.50;41.20;;;;;;5028239;28;20453;-74
2023/05/28 11:12:35;;;;;;;18.00;16.83;;;33.30;42.00;;;;;;5028527;28;20448;-74
2023/05/28 11:15:03;;;;;;;18.17;17.00;;;33.20;41.70;;;;;;5028358;28;20449;-74
2023/05/28 11:17:30;;;;;;;15.70;14.60;;;34.10;41.70;;;;;;5028531;28;20484;-75
2023/05/28 11:19:57;;;;;;;16.90;16.07;;;34.40;40.70;;;;;;5028813;28;20966;-76
2023/05/28 11:22:23;;;;;;;14.67;13.97;;;34.70;39.40;;;;;;5029079;28;21005;-75
2023/05/28 11:24:58;;;;;;;18.87;17.90;;;34.20;39.50;;;;;;5028897;28;20893;-75
2023/05/28 11:27:25;;;;;;;17.80;16.90;;;33.60;38.60;;;;;;5029133;28;20463;-75
2023/05/28 11:29:53;;;;;;;15.93;15.03;;;33.80;39.00;;;;;;5029213;28;20445;-75
2023/05/28 11:32:21;;;;;;;15.97;14.77;;;33.90;38.20;;;;;;5028900;28;21062;-75
2023/05/28 11:34:49;;;;;;;15.47;14.67;;;33.30;38.30;;;;;;5029071;28;20445;-75
2023/05/28 11:37:16;;;;;;;16.50;15.40;;;33.30;38.70;;;;;;5032834;28;20555;-75
2023/05/28 11:39:50;;;;;;;16.13;15.13;;;32.80;38.70;;;;;;5032792;28;20935;-75
2023/05/28 11:42:16;;;;;;;15.70;14.70;;;32.70;38.40;;;;;;5032863;28;20459;-74
2023/05/28 11:44:45;;;;;;;16.40;15.40;;;32.50;37.30;;;;;;5033237;28;20790;-75
2023/05/28 11:47:12;;;;;;;17.87;16.67;;;32.30;37.50;;;;;;5032694;28;20445;-75
2023/05/28 11:49:41;;;;;;;16.53;15.23;;;32.10;37.10;;;;;;5032401;28;20453;-76
2023/05/28 11:52:11;;;;;;;15.60;14.80;;;32.10;37.10;;;;;;5032488;28;20448;-74
2023/05/28 11:54:40;;;;;;;15.57;14.80;;;32.50;36.80;;;;;;5032484;28;20488;-74
2023/05/28 11:57:07;;;;;;;16.67;15.80;;;33.50;35.80;;;;;;5032252;28;20449;-74
2023/05/28 11:59:34;;;;;;;17.80;16.77;;;33.20;35.50;;;;;;5032405;28;20455;-74
2023/05/28 12:02:16;;;;;;;14.80;13.90;;;33.60;35.50;;;;;;5032574;28;20448;-74
2023/05/28 12:04:56;;;;;;;15.50;14.77;;;33.70;34.90;;;;;;5032769;28;20445;-74
2023/05/28 12:07:23;;;;;;;16.60;15.67;;;32.80;36.20;;;;;;5032333;28;20463;-75
2023/05/28 12:09:49;;;;;;;16.20;15.10;;;32.60;36.70;;;;;;5032055;28;20456;-74
2023/05/28 12:12:16;;;;;;;15.97;14.87;;;32.50;37.10;;;;;;5032451;28;20457;-74
2023/05/28 12:14:47;;;;;;;15.77;14.67;;;32.30;36.80;;;;;;5032017;28;20508;-75
2023/05/28 12:17:13;;;;;;;15.63;14.83;;;32.20;36.50;;;;;;5032090;28;20507;-75
2023/05/28 12:19:40;;;;;;;16.27;15.30;;;32.40;36.70;;;;;;5031768;28;20943;-74
2023/05/28 12:22:18;;;;;;;16.17;15.17;;;32.90;36.60;;;;;;5031875;28;20845;-75
2023/05/28 12:24:50;;;;;;;15.43;14.60;;;33.00;36.50;;;;;;5031969;28;20449;-74
2023/05/28 12:27:17;;;;;;;16.43;15.63;;;32.70;36.40;;;;;;5032108;28;20492;-75
2023/05/28 12:29:44;;;;;;;17.13;15.93;;;33.00;37.20;;;;;;5031950;28;20460;-75
2023/05/28 12:32:11;;;;;;;17.23;16.03;;;33.40;36.70;;;;;;5032085;28;20939;-74
2023/05/28 12:34:38;;;;;;;15.93;14.93;;;34.00;35.60;;;;;;5031542;28;20448;-74